sensor_id;sensor_type;location;lat;lon;timestamp;temperature;humidity
64939;DHT22;51453;47.738;7.420;2022-12-18T00:01:13;-5.90;99.90
64939;DHT22;51453;47.738;7.420;2022-12-18T00:03:39;-5.90;99.90
64939;DHT22;51453;47.738;7.420;2022-12-18T00:06:05;-5.90;99.90
64939;DHT22;51453;47.738;7.420;2022-12-18T00:08:30;-5.80;99.90
64939;DHT22;51453;47.738;7.420;2022-12-18T00:11:06;-5.90;99.90
64939;DHT22;51453;47.738;7.420;2022-12-18T00:13:33;-5.90;99.90
64939;DHT22;51453;47.738;7.420;2022-12-18T00:16:04;-5.90;99.90
64939;DHT22;51453;47.738;7.420;2022-12-18T00:18:29;-5.90;99.90
64939;DHT22;51453;47.738;7.420;2022-12-18T00:21:02;-5.80;99.90
64939;DHT22;51453;47.738;7.420;2022-12-18T00:23:28;-5.80;99.90
64939;DHT22;51453;47.738;7.420;2022-12-18T00:25:54;-5.80;99.90
64939;DHT22;51453;47.738;7.420;2022-12-18T00:28:20;-5.80;99.90
64939;DHT22;51453;47.738;7.420;2022-12-18T00:30:46;-5.90;99.90
64939;DHT22;51453;47.738;7.420;2022-12-18T00:33:11;-5.80;99.90
64939;DHT22;51453;47.738;7.420;2022-12-18T00:35:37;-5.70;99.90
64939;DHT22;51453;47.738;7.420;2022-12-18T00:38:03;-5.80;99.90
64939;DHT22;51453;47.738;7.420;2022-12-18T00:40:28;-5.80;99.90
64939;DHT22;51453;47.738;7.420;2022-12-18T00:42:54;-5.80;99.90
64939;DHT22;51453;47.738;7.420;2022-12-18T00:45:30;-5.70;99.90
64939;DHT22;51453;47.738;7.420;2022-12-18T00:47:56;-5.70;99.90
64939;DHT22;51453;47.738;7.420;2022-12-18T00:50:24;-5.70;99.90
64939;DHT22;51453;47.738;7.420;2022-12-18T00:52:50;-5.70;99.90
64939;DHT22;51453;47.738;7.420;2022-12-18T00:55:16;-5.70;99.90
64939;DHT22;51453;47.738;7.420;2022-12-18T00:57:42;-5.70;99.90
64939;DHT22;51453;47.738;7.420;2022-12-18T01:00:11;-5.70;99.90
64939;DHT22;51453;47.738;7.420;2022-12-18T01:02:36;-5.80;99.90
64939;DHT22;51453;47.738;7.420;2022-12-18T01:05:04;-5.90;99.90
64939;DHT22;51453;47.738;7.420;2022-12-18T01:07:30;-5.90;99.90
64939;DHT22;51453;47.738;7.420;2022-12-18T01:09:56;-5.90;99.90
64939;DHT22;51453;47.738;7.420;2022-12-18T01:12:21;-5.80;99.90
64939;DHT22;51453;47.738;7.420;2022-12-18T01:14:47;-5.80;99.90
64939;DHT22;51453;47.738;7.420;2022-12-18T01:17:13;-5.80;99.90
64939;DHT22;51453;47.738;7.420;2022-12-18T01:19:38;-5.70;99.90
64939;DHT22;51453;47.738;7.420;2022-12-18T01:22:04;-5.80;99.90
64939;DHT22;51453;47.738;7.420;2022-12-18T01:24:30;-5.80;99.90
64939;DHT22;51453;47.738;7.420;2022-12-18T01:26:55;-5.80;99.90
64939;DHT22;51453;47.738;7.420;2022-12-18T01:29:22;-5.70;99.90
64939;DHT22;51453;47.738;7.420;2022-12-18T01:31:48;-5.80;99.90
64939;DHT22;51453;47.738;7.420;2022-12-18T01:34:14;-5.80;99.90
64939;DHT22;51453;47.738;7.420;2022-12-18T01:36:40;-5.90;99.90
64939;DHT22;51453;47.738;7.420;2022-12-18T01:39:13;-5.90;99.90
64939;DHT22;51453;47.738;7.420;2022-12-18T01:41:40;-5.90;99.90
64939;DHT22;51453;47.738;7.420;2022-12-18T01:50:20;-5.90;99.90
64939;DHT22;51453;47.738;7.420;2022-12-18T01:52:49;-5.80;99.90
64939;DHT22;51453;47.738;7.420;2022-12-18T01:55:17;-5.80;99.90
64939;DHT22;51453;47.738;7.420;2022-12-18T01:57:44;-5.80;99.90
64939;DHT22;51453;47.738;7.420;2022-12-18T02:00:18;-5.80;99.90
64939;DHT22;51453;47.738;7.420;2022-12-18T02:02:45;-5.80;99.90
64939;DHT22;51453;47.738;7.420;2022-12-18T02:05:15;-5.70;99.90
64939;DHT22;51453;47.738;7.420;2022-12-18T02:08:16;-5.70;99.90
64939;DHT22;51453;47.738;7.420;2022-12-18T02:10:54;-5.80;99.90
64939;DHT22;51453;47.738;7.420;2022-12-18T02:16:52;-5.70;99.90
64939;DHT22;51453;47.738;7.420;2022-12-18T02:19:40;-5.70;99.90
64939;DHT22;51453;47.738;7.420;2022-12-18T02:27:51;-5.70;99.90
64939;DHT22;51453;47.738;7.420;2022-12-18T02:30:18;-5.70;99.90
64939;DHT22;51453;47.738;7.420;2022-12-18T02:32:48;-5.70;99.90
64939;DHT22;51453;47.738;7.420;2022-12-18T02:35:21;-5.70;99.90
64939;DHT22;51453;47.738;7.420;2022-12-18T02:37:49;-5.70;99.90
64939;DHT22;51453;47.738;7.420;2022-12-18T02:40:17;-5.60;99.90
64939;DHT22;51453;47.738;7.420;2022-12-18T02:42:44;-5.70;99.90
64939;DHT22;51453;47.738;7.420;2022-12-18T02:45:10;-5.80;99.90
64939;DHT22;51453;47.738;7.420;2022-12-18T02:47:42;-5.80;99.90
64939;DHT22;51453;47.738;7.420;2022-12-18T03:01:15;-5.70;99.90
64939;DHT22;51453;47.738;7.420;2022-12-18T03:06:25;-5.70;99.90
64939;DHT22;51453;47.738;7.420;2022-12-18T03:08:58;-5.60;99.90
64939;DHT22;51453;47.738;7.420;2022-12-18T03:11:26;-5.50;99.90
64939;DHT22;51453;47.738;7.420;2022-12-18T03:14:34;-5.50;99.90
64939;DHT22;51453;47.738;7.420;2022-12-18T03:17:05;-5.50;99.90
64939;DHT22;51453;47.738;7.420;2022-12-18T03:19:34;-5.50;99.90
64939;DHT22;51453;47.738;7.420;2022-12-18T03:22:03;-5.60;99.90
64939;DHT22;51453;47.738;7.420;2022-12-18T03:24:31;-5.60;99.90
64939;DHT22;51453;47.738;7.420;2022-12-18T03:27:01;-5.60;99.90
64939;DHT22;51453;47.738;7.420;2022-12-18T03:29:35;-5.60;99.90
64939;DHT22;51453;47.738;7.420;2022-12-18T03:32:15;-5.50;99.90
64939;DHT22;51453;47.738;7.420;2022-12-18T03:34:42;-5.40;99.90
64939;DHT22;51453;47.738;7.420;2022-12-18T03:37:09;-5.40;99.90
64939;DHT22;51453;47.738;7.420;2022-12-18T03:39:35;-5.40;99.90
64939;DHT22;51453;47.738;7.420;2022-12-18T03:42:06;-5.40;99.90
64939;DHT22;51453;47.738;7.420;2022-12-18T03:44:43;-5.40;99.90
64939;DHT22;51453;47.738;7.420;2022-12-18T03:47:16;-5.30;99.90
64939;DHT22;51453;47.738;7.420;2022-12-18T03:49:59;-5.30;99.90
64939;DHT22;51453;47.738;7.420;2022-12-18T03:52:31;-5.30;99.90
64939;DHT22;51453;47.738;7.420;2022-12-18T03:55:00;-5.30;99.90
64939;DHT22;51453;47.738;7.420;2022-12-18T03:57:29;-5.40;99.90
64939;DHT22;51453;47.738;7.420;2022-12-18T04:00:29;-5.40;99.90
64939;DHT22;51453;47.738;7.420;2022-12-18T04:02:57;-5.30;99.90
64939;DHT22;51453;47.738;7.420;2022-12-18T04:05:27;-5.30;99.90
64939;DHT22;51453;47.738;7.420;2022-12-18T04:07:55;-5.30;99.90
64939;DHT22;51453;47.738;7.420;2022-12-18T04:10:21;-5.40;99.90
64939;DHT22;51453;47.738;7.420;2022-12-18T04:12:47;-5.40;99.90
64939;DHT22;51453;47.738;7.420;2022-12-18T04:15:13;-5.40;99.90
64939;DHT22;51453;47.738;7.420;2022-12-18T04:17:46;-5.60;99.90
64939;DHT22;51453;47.738;7.420;2022-12-18T04:20:12;-5.50;99.90
64939;DHT22;51453;47.738;7.420;2022-12-18T04:22:38;-5.60;99.90
64939;DHT22;51453;47.738;7.420;2022-12-18T04:25:04;-5.50;99.90
64939;DHT22;51453;47.738;7.420;2022-12-18T04:27:30;-5.50;99.90
64939;DHT22;51453;47.738;7.420;2022-12-18T04:29:55;-5.50;99.90
64939;DHT22;51453;47.738;7.420;2022-12-18T04:32:21;-5.50;99.90
64939;DHT22;51453;47.738;7.420;2022-12-18T04:34:47;-5.50;99.90
64939;DHT22;51453;47.738;7.420;2022-12-18T04:37:13;-5.40;99.90
64939;DHT22;51453;47.738;7.420;2022-12-18T04:39:38;-5.40;99.90
64939;DHT22;51453;47.738;7.420;2022-12-18T04:42:04;-5.30;99.90
64939;DHT22;51453;47.738;7.420;2022-12-18T04:44:30;-5.30;99.90
64939;DHT22;51453;47.738;7.420;2022-12-18T04:46:56;-5.30;99.90
64939;DHT22;51453;47.738;7.420;2022-12-18T04:49:21;-5.40;99.90
64939;DHT22;51453;47.738;7.420;2022-12-18T04:51:47;-5.30;99.90
64939;DHT22;51453;47.738;7.420;2022-12-18T04:54:13;-5.40;99.90
64939;DHT22;51453;47.738;7.420;2022-12-18T04:56:39;-5.40;99.90
64939;DHT22;51453;47.738;7.420;2022-12-18T04:59:05;-5.50;99.90
64939;DHT22;51453;47.738;7.420;2022-12-18T05:01:31;-5.50;99.90
64939;DHT22;51453;47.738;7.420;2022-12-18T05:03:56;-5.50;99.90
64939;DHT22;51453;47.738;7.420;2022-12-18T05:06:22;-5.50;99.90
64939;DHT22;51453;47.738;7.420;2022-12-18T05:08:47;-5.40;99.90
64939;DHT22;51453;47.738;7.420;2022-12-18T05:11:14;-5.30;99.90
64939;DHT22;51453;47.738;7.420;2022-12-18T05:13:44;-5.30;99.90
64939;DHT22;51453;47.738;7.420;2022-12-18T05:16:10;-5.30;99.90
64939;DHT22;51453;47.738;7.420;2022-12-18T05:18:36;-5.20;99.90
64939;DHT22;51453;47.738;7.420;2022-12-18T05:21:02;-5.30;99.90
64939;DHT22;51453;47.738;7.420;2022-12-18T05:23:28;-5.30;99.90
64939;DHT22;51453;47.738;7.420;2022-12-18T05:25:59;-5.30;99.90
64939;DHT22;51453;47.738;7.420;2022-12-18T05:28:27;-5.30;99.90
64939;DHT22;51453;47.738;7.420;2022-12-18T05:30:54;-5.20;99.90
64939;DHT22;51453;47.738;7.420;2022-12-18T05:33:22;-5.30;99.90
64939;DHT22;51453;47.738;7.420;2022-12-18T05:35:59;-5.30;99.90
64939;DHT22;51453;47.738;7.420;2022-12-18T05:38:26;-5.30;99.90
64939;DHT22;51453;47.738;7.420;2022-12-18T05:40:52;-5.30;99.90
64939;DHT22;51453;47.738;7.420;2022-12-18T05:43:19;-5.20;99.90
64939;DHT22;51453;47.738;7.420;2022-12-18T05:45:46;-5.20;99.90
64939;DHT22;51453;47.738;7.420;2022-12-18T05:48:12;-5.30;99.90
64939;DHT22;51453;47.738;7.420;2022-12-18T05:50:39;-5.30;99.90
64939;DHT22;51453;47.738;7.420;2022-12-18T05:53:06;-5.40;99.90
64939;DHT22;51453;47.738;7.420;2022-12-18T05:55:35;-5.50;99.90
64939;DHT22;51453;47.738;7.420;2022-12-18T05:58:02;-5.50;99.90
64939;DHT22;51453;47.738;7.420;2022-12-18T06:00:28;-5.50;99.90
64939;DHT22;51453;47.738;7.420;2022-12-18T06:02:54;-5.50;99.90
64939;DHT22;51453;47.738;7.420;2022-12-18T06:05:19;-5.40;99.90
64939;DHT22;51453;47.738;7.420;2022-12-18T06:07:45;-5.40;99.90
64939;DHT22;51453;47.738;7.420;2022-12-18T06:10:11;-5.40;99.90
64939;DHT22;51453;47.738;7.420;2022-12-18T06:12:37;-5.40;99.90
64939;DHT22;51453;47.738;7.420;2022-12-18T06:15:03;-5.30;99.90
64939;DHT22;51453;47.738;7.420;2022-12-18T06:17:32;-5.30;99.90
64939;DHT22;51453;47.738;7.420;2022-12-18T06:19:58;-5.30;99.90
64939;DHT22;51453;47.738;7.420;2022-12-18T06:22:24;-5.30;99.90
64939;DHT22;51453;47.738;7.420;2022-12-18T06:24:50;-5.30;99.90
64939;DHT22;51453;47.738;7.420;2022-12-18T06:27:16;-5.20;99.90
64939;DHT22;51453;47.738;7.420;2022-12-18T06:29:42;-5.30;99.90
64939;DHT22;51453;47.738;7.420;2022-12-18T06:32:07;-5.20;99.90
64939;DHT22;51453;47.738;7.420;2022-12-18T06:34:33;-5.30;99.90
64939;DHT22;51453;47.738;7.420;2022-12-18T06:37:00;-5.30;99.90
64939;DHT22;51453;47.738;7.420;2022-12-18T06:39:29;-5.30;99.90
64939;DHT22;51453;47.738;7.420;2022-12-18T06:41:55;-5.30;99.90
64939;DHT22;51453;47.738;7.420;2022-12-18T06:44:21;-5.30;99.90
64939;DHT22;51453;47.738;7.420;2022-12-18T06:46:46;-5.30;99.90
64939;DHT22;51453;47.738;7.420;2022-12-18T06:49:12;-5.30;99.90
64939;DHT22;51453;47.738;7.420;2022-12-18T06:51:38;-5.30;99.90
64939;DHT22;51453;47.738;7.420;2022-12-18T06:54:04;-5.40;99.90
64939;DHT22;51453;47.738;7.420;2022-12-18T06:56:30;-5.30;99.90
64939;DHT22;51453;47.738;7.420;2022-12-18T06:58:55;-5.30;99.90
64939;DHT22;51453;47.738;7.420;2022-12-18T07:01:21;-5.30;99.90
64939;DHT22;51453;47.738;7.420;2022-12-18T07:03:52;-5.20;99.90
64939;DHT22;51453;47.738;7.420;2022-12-18T07:06:20;-5.20;99.90
64939;DHT22;51453;47.738;7.420;2022-12-18T07:08:47;-5.20;99.90
64939;DHT22;51453;47.738;7.420;2022-12-18T07:11:13;-5.10;99.90
64939;DHT22;51453;47.738;7.420;2022-12-18T07:13:38;-5.00;99.90
64939;DHT22;51453;47.738;7.420;2022-12-18T07:16:09;-5.00;99.90
64939;DHT22;51453;47.738;7.420;2022-12-18T07:18:35;-4.90;99.90
64939;DHT22;51453;47.738;7.420;2022-12-18T07:21:06;-4.90;99.90
64939;DHT22;51453;47.738;7.420;2022-12-18T07:23:32;-4.80;99.90
64939;DHT22;51453;47.738;7.420;2022-12-18T07:26:04;-4.80;99.90
64939;DHT22;51453;47.738;7.420;2022-12-18T07:28:31;-4.70;99.90
64939;DHT22;51453;47.738;7.420;2022-12-18T07:30:56;-4.70;99.90
64939;DHT22;51453;47.738;7.420;2022-12-18T07:33:22;-4.80;99.90
64939;DHT22;51453;47.738;7.420;2022-12-18T07:35:48;-4.80;99.90
64939;DHT22;51453;47.738;7.420;2022-12-18T07:38:13;-4.70;99.90
64939;DHT22;51453;47.738;7.420;2022-12-18T07:40:39;-4.70;99.90
64939;DHT22;51453;47.738;7.420;2022-12-18T07:43:04;-4.70;99.90
64939;DHT22;51453;47.738;7.420;2022-12-18T07:45:30;-4.60;99.90
64939;DHT22;51453;47.738;7.420;2022-12-18T07:47:56;-4.60;99.90
64939;DHT22;51453;47.738;7.420;2022-12-18T07:50:21;-4.60;99.90
64939;DHT22;51453;47.738;7.420;2022-12-18T07:52:47;-4.70;99.90
64939;DHT22;51453;47.738;7.420;2022-12-18T07:55:13;-4.80;99.90
64939;DHT22;51453;47.738;7.420;2022-12-18T07:57:39;-4.80;99.90
64939;DHT22;51453;47.738;7.420;2022-12-18T08:00:05;-4.90;99.90
64939;DHT22;51453;47.738;7.420;2022-12-18T08:02:31;-4.90;99.90
64939;DHT22;51453;47.738;7.420;2022-12-18T08:04:57;-4.80;99.90
64939;DHT22;51453;47.738;7.420;2022-12-18T08:07:23;-4.80;99.90
64939;DHT22;51453;47.738;7.420;2022-12-18T08:09:49;-4.80;99.90
64939;DHT22;51453;47.738;7.420;2022-12-18T08:12:15;-4.70;99.90
64939;DHT22;51453;47.738;7.420;2022-12-18T08:14:40;-4.60;99.90
64939;DHT22;51453;47.738;7.420;2022-12-18T08:17:06;-4.50;99.90
64939;DHT22;51453;47.738;7.420;2022-12-18T08:19:32;-4.40;99.90
64939;DHT22;51453;47.738;7.420;2022-12-18T08:21:57;-4.40;99.90
64939;DHT22;51453;47.738;7.420;2022-12-18T08:24:23;-4.40;99.90
64939;DHT22;51453;47.738;7.420;2022-12-18T08:26:49;-4.40;99.90
64939;DHT22;51453;47.738;7.420;2022-12-18T08:29:15;-4.40;99.90
64939;DHT22;51453;47.738;7.420;2022-12-18T08:31:41;-4.20;99.90
64939;DHT22;51453;47.738;7.420;2022-12-18T08:34:08;-4.10;99.90
64939;DHT22;51453;47.738;7.420;2022-12-18T08:36:33;-4.10;99.90
64939;DHT22;51453;47.738;7.420;2022-12-18T08:38:59;-4.10;99.90
64939;DHT22;51453;47.738;7.420;2022-12-18T08:41:25;-4.10;99.90
64939;DHT22;51453;47.738;7.420;2022-12-18T08:43:51;-4.10;99.90
64939;DHT22;51453;47.738;7.420;2022-12-18T08:46:43;-4.10;99.90
64939;DHT22;51453;47.738;7.420;2022-12-18T08:49:10;-4.10;99.90
64939;DHT22;51453;47.738;7.420;2022-12-18T08:51:37;-4.00;99.90
64939;DHT22;51453;47.738;7.420;2022-12-18T08:54:03;-3.90;99.90
64939;DHT22;51453;47.738;7.420;2022-12-18T08:56:29;-3.90;99.90
64939;DHT22;51453;47.738;7.420;2022-12-18T08:58:55;-3.70;99.90
64939;DHT22;51453;47.738;7.420;2022-12-18T09:01:22;-3.60;99.90
64939;DHT22;51453;47.738;7.420;2022-12-18T09:03:49;-3.40;99.90
64939;DHT22;51453;47.738;7.420;2022-12-18T09:06:19;-3.30;99.90
64939;DHT22;51453;47.738;7.420;2022-12-18T09:08:45;-3.20;99.90
64939;DHT22;51453;47.738;7.420;2022-12-18T09:11:21;-3.10;99.90
64939;DHT22;51453;47.738;7.420;2022-12-18T09:13:48;-2.90;99.90
64939;DHT22;51453;47.738;7.420;2022-12-18T09:16:15;-2.90;99.90
64939;DHT22;51453;47.738;7.420;2022-12-18T09:18:40;-3.00;99.90
64939;DHT22;51453;47.738;7.420;2022-12-18T09:21:19;-3.00;99.90
64939;DHT22;51453;47.738;7.420;2022-12-18T09:23:52;-3.10;99.90
64939;DHT22;51453;47.738;7.420;2022-12-18T09:26:20;-2.90;99.90
64939;DHT22;51453;47.738;7.420;2022-12-18T09:28:45;-2.90;99.90
64939;DHT22;51453;47.738;7.420;2022-12-18T09:31:12;-2.80;99.90
64939;DHT22;51453;47.738;7.420;2022-12-18T09:33:38;-2.80;99.90
64939;DHT22;51453;47.738;7.420;2022-12-18T09:36:06;-2.60;99.90
64939;DHT22;51453;47.738;7.420;2022-12-18T09:38:33;-2.40;99.90
64939;DHT22;51453;47.738;7.420;2022-12-18T09:43:43;-2.10;99.90
64939;DHT22;51453;47.738;7.420;2022-12-18T09:46:15;-2.10;99.90
64939;DHT22;51453;47.738;7.420;2022-12-18T09:48:45;-1.80;99.90
64939;DHT22;51453;47.738;7.420;2022-12-18T09:51:19;-1.70;99.90
64939;DHT22;51453;47.738;7.420;2022-12-18T09:53:51;-1.60;99.90
64939;DHT22;51453;47.738;7.420;2022-12-18T09:56:19;-1.50;99.90
64939;DHT22;51453;47.738;7.420;2022-12-18T10:01:22;-1.70;99.90
64939;DHT22;51453;47.738;7.420;2022-12-18T10:03:49;-1.80;99.90
64939;DHT22;51453;47.738;7.420;2022-12-18T10:09:03;-1.60;99.90
64939;DHT22;51453;47.738;7.420;2022-12-18T10:11:45;-1.50;99.90
64939;DHT22;51453;47.738;7.420;2022-12-18T10:27:35;-1.60;99.90
64939;DHT22;51453;47.738;7.420;2022-12-18T10:30:25;-1.70;99.90
64939;DHT22;51453;47.738;7.420;2022-12-18T10:32:50;-1.90;99.90
64939;DHT22;51453;47.738;7.420;2022-12-18T10:35:22;-2.00;99.90
64939;DHT22;51453;47.738;7.420;2022-12-18T10:40:31;-1.80;99.90
64939;DHT22;51453;47.738;7.420;2022-12-18T10:43:12;-1.40;99.90
64939;DHT22;51453;47.738;7.420;2022-12-18T10:45:38;-1.60;99.90
64939;DHT22;51453;47.738;7.420;2022-12-18T10:48:05;-2.00;99.90
64939;DHT22;51453;47.738;7.420;2022-12-18T10:50:46;-2.10;99.90
64939;DHT22;51453;47.738;7.420;2022-12-18T10:53:20;-2.00;99.90
64939;DHT22;51453;47.738;7.420;2022-12-18T10:55:47;-1.80;99.90
64939;DHT22;51453;47.738;7.420;2022-12-18T10:58:25;-1.90;99.90
64939;DHT22;51453;47.738;7.420;2022-12-18T11:01:15;-2.00;99.90
64939;DHT22;51453;47.738;7.420;2022-12-18T11:04:02;-2.00;99.90
64939;DHT22;51453;47.738;7.420;2022-12-18T11:06:33;-2.10;99.90
64939;DHT22;51453;47.738;7.420;2022-12-18T11:09:19;-2.30;99.90
64939;DHT22;51453;47.738;7.420;2022-12-18T11:11:50;-2.40;99.90
64939;DHT22;51453;47.738;7.420;2022-12-18T11:16:53;-2.60;99.90
64939;DHT22;51453;47.738;7.420;2022-12-18T11:19:39;-2.40;99.90
64939;DHT22;51453;47.738;7.420;2022-12-18T11:22:25;-2.40;99.90
64939;DHT22;51453;47.738;7.420;2022-12-18T11:25:17;-2.30;99.90
64939;DHT22;51453;47.738;7.420;2022-12-18T11:27:49;-2.00;99.90
64939;DHT22;51453;47.738;7.420;2022-12-18T11:30:36;-1.80;99.90
64939;DHT22;51453;47.738;7.420;2022-12-18T11:33:10;-1.80;99.90
64939;DHT22;51453;47.738;7.420;2022-12-18T11:35:39;-1.60;99.90
64939;DHT22;51453;47.738;7.420;2022-12-18T11:38:27;-1.70;99.90
64939;DHT22;51453;47.738;7.420;2022-12-18T11:43:47;-2.00;99.90
64939;DHT22;51453;47.738;7.420;2022-12-18T11:46:18;-1.90;99.90
64939;DHT22;51453;47.738;7.420;2022-12-18T11:49:21;-2.00;99.90
64939;DHT22;51453;47.738;7.420;2022-12-18T11:54:45;-2.20;99.90
64939;DHT22;51453;47.738;7.420;2022-12-18T12:17:06;-2.00;99.90
64939;DHT22;51453;47.738;7.420;2022-12-18T12:19:46;-2.00;99.90
64939;DHT22;51453;47.738;7.420;2022-12-18T12:22:16;-1.50;99.90
64939;DHT22;51453;47.738;7.420;2022-12-18T12:27:37;-1.20;99.90
64939;DHT22;51453;47.738;7.420;2022-12-18T12:30:46;-1.20;99.90
64939;DHT22;51453;47.738;7.420;2022-12-18T12:33:16;-1.00;99.90
64939;DHT22;51453;47.738;7.420;2022-12-18T12:38:30;-1.10;99.90
64939;DHT22;51453;47.738;7.420;2022-12-18T12:41:01;-1.00;99.90
64939;DHT22;51453;47.738;7.420;2022-12-18T12:43:48;-1.00;99.90
64939;DHT22;51453;47.738;7.420;2022-12-18T12:46:16;-1.00;99.90
64939;DHT22;51453;47.738;7.420;2022-12-18T12:48:46;-1.20;99.90
64939;DHT22;51453;47.738;7.420;2022-12-18T12:51:37;-1.10;99.90
64939;DHT22;51453;47.738;7.420;2022-12-18T12:54:14;-1.30;99.90
64939;DHT22;51453;47.738;7.420;2022-12-18T12:59:37;-1.40;99.90
64939;DHT22;51453;47.738;7.420;2022-12-18T13:05:02;-1.50;99.90
64939;DHT22;51453;47.738;7.420;2022-12-18T13:07:45;-1.40;99.90
64939;DHT22;51453;47.738;7.420;2022-12-18T13:28:52;-2.20;99.90
64939;DHT22;51453;47.738;7.420;2022-12-18T13:36:40;-2.00;99.90
64939;DHT22;51453;47.738;7.420;2022-12-18T13:41:52;-1.70;99.90
64939;DHT22;51453;47.738;7.420;2022-12-18T13:46:57;-1.60;99.90
64939;DHT22;51453;47.738;7.420;2022-12-18T13:51:55;-1.70;99.90
64939;DHT22;51453;47.738;7.420;2022-12-18T13:56:53;-1.60;99.90
64939;DHT22;51453;47.738;7.420;2022-12-18T13:59:23;-1.60;99.90
64939;DHT22;51453;47.738;7.420;2022-12-18T14:01:56;-1.60;99.90
64939;DHT22;51453;47.738;7.420;2022-12-18T14:04:35;-1.60;99.90
64939;DHT22;51453;47.738;7.420;2022-12-18T14:07:05;-1.60;99.90
64939;DHT22;51453;47.738;7.420;2022-12-18T14:09:39;-1.60;99.90
64939;DHT22;51453;47.738;7.420;2022-12-18T14:12:06;-1.60;99.90
64939;DHT22;51453;47.738;7.420;2022-12-18T14:14:52;-1.60;99.90
64939;DHT22;51453;47.738;7.420;2022-12-18T14:17:18;-1.50;99.90
64939;DHT22;51453;47.738;7.420;2022-12-18T14:19:46;-1.60;99.90
64939;DHT22;51453;47.738;7.420;2022-12-18T14:22:21;-1.50;99.90
64939;DHT22;51453;47.738;7.420;2022-12-18T14:25:19;-1.40;99.90
64939;DHT22;51453;47.738;7.420;2022-12-18T14:30:28;-1.40;99.90
64939;DHT22;51453;47.738;7.420;2022-12-18T14:33:02;-1.30;99.90
64939;DHT22;51453;47.738;7.420;2022-12-18T14:35:27;-1.30;99.90
64939;DHT22;51453;47.738;7.420;2022-12-18T14:37:53;-1.40;99.90
64939;DHT22;51453;47.738;7.420;2022-12-18T14:40:19;-1.40;99.90
64939;DHT22;51453;47.738;7.420;2022-12-18T14:42:45;-1.30;99.90
64939;DHT22;51453;47.738;7.420;2022-12-18T14:47:58;-1.20;99.90
64939;DHT22;51453;47.738;7.420;2022-12-18T14:50:25;-1.20;99.90
64939;DHT22;51453;47.738;7.420;2022-12-18T14:52:51;-1.20;99.90
64939;DHT22;51453;47.738;7.420;2022-12-18T14:55:19;-1.30;99.90
64939;DHT22;51453;47.738;7.420;2022-12-18T14:57:46;-1.40;99.90
64939;DHT22;51453;47.738;7.420;2022-12-18T15:00:17;-1.40;99.90
64939;DHT22;51453;47.738;7.420;2022-12-18T15:02:54;-1.50;99.90
64939;DHT22;51453;47.738;7.420;2022-12-18T15:05:26;-1.50;99.90
64939;DHT22;51453;47.738;7.420;2022-12-18T15:07:55;-1.50;99.90
64939;DHT22;51453;47.738;7.420;2022-12-18T15:10:30;-1.50;99.90
64939;DHT22;51453;47.738;7.420;2022-12-18T15:20:48;-1.70;99.90
64939;DHT22;51453;47.738;7.420;2022-12-18T15:25:48;-1.80;99.90
64939;DHT22;51453;47.738;7.420;2022-12-18T15:28:24;-1.80;99.90
64939;DHT22;51453;47.738;7.420;2022-12-18T15:33:38;-2.00;99.90
64939;DHT22;51453;47.738;7.420;2022-12-18T15:36:08;-2.00;99.90
64939;DHT22;51453;47.738;7.420;2022-12-18T15:38:35;-2.00;99.90
64939;DHT22;51453;47.738;7.420;2022-12-18T15:41:01;-2.10;99.90
64939;DHT22;51453;47.738;7.420;2022-12-18T15:43:30;-2.20;99.90
64939;DHT22;51453;47.738;7.420;2022-12-18T15:46:08;-2.30;99.90
64939;DHT22;51453;47.738;7.420;2022-12-18T15:48:38;-2.40;99.90
64939;DHT22;51453;47.738;7.420;2022-12-18T15:51:07;-2.40;99.90
64939;DHT22;51453;47.738;7.420;2022-12-18T15:53:36;-2.40;99.90
64939;DHT22;51453;47.738;7.420;2022-12-18T15:56:01;-2.50;99.90
64939;DHT22;51453;47.738;7.420;2022-12-18T15:58:46;-2.50;99.90
64939;DHT22;51453;47.738;7.420;2022-12-18T16:01:25;-2.50;99.90
64939;DHT22;51453;47.738;7.420;2022-12-18T16:03:51;-2.50;99.90
64939;DHT22;51453;47.738;7.420;2022-12-18T16:06:17;-2.50;99.90
64939;DHT22;51453;47.738;7.420;2022-12-18T16:08:42;-2.50;99.90
64939;DHT22;51453;47.738;7.420;2022-12-18T16:11:27;-2.50;99.90
64939;DHT22;51453;47.738;7.420;2022-12-18T16:14:34;-2.50;99.90
64939;DHT22;51453;47.738;7.420;2022-12-18T16:17:02;-2.50;99.90
64939;DHT22;51453;47.738;7.420;2022-12-18T16:19:28;-2.50;99.90
64939;DHT22;51453;47.738;7.420;2022-12-18T16:21:56;-2.60;99.90
64939;DHT22;51453;47.738;7.420;2022-12-18T16:24:28;-2.50;99.90
64939;DHT22;51453;47.738;7.420;2022-12-18T16:26:57;-2.50;99.90
64939;DHT22;51453;47.738;7.420;2022-12-18T16:29:25;-2.50;99.90
64939;DHT22;51453;47.738;7.420;2022-12-18T16:31:56;-2.50;99.90
64939;DHT22;51453;47.738;7.420;2022-12-18T16:34:24;-2.50;99.90
64939;DHT22;51453;47.738;7.420;2022-12-18T16:37:01;-2.50;99.90
64939;DHT22;51453;47.738;7.420;2022-12-18T16:39:27;-2.50;99.90
64939;DHT22;51453;47.738;7.420;2022-12-18T16:41:53;-2.40;99.90
64939;DHT22;51453;47.738;7.420;2022-12-18T16:44:19;-2.40;99.90
64939;DHT22;51453;47.738;7.420;2022-12-18T16:46:45;-2.40;99.90
64939;DHT22;51453;47.738;7.420;2022-12-18T16:49:12;-2.40;99.90
64939;DHT22;51453;47.738;7.420;2022-12-18T16:51:38;-2.40;99.90
64939;DHT22;51453;47.738;7.420;2022-12-18T16:54:04;-2.50;99.90
64939;DHT22;51453;47.738;7.420;2022-12-18T16:56:30;-2.50;99.90
64939;DHT22;51453;47.738;7.420;2022-12-18T16:58:58;-2.50;99.90
64939;DHT22;51453;47.738;7.420;2022-12-18T17:01:25;-2.40;99.90
64939;DHT22;51453;47.738;7.420;2022-12-18T17:03:59;-2.50;99.90
64939;DHT22;51453;47.738;7.420;2022-12-18T17:06:26;-2.40;99.90
64939;DHT22;51453;47.738;7.420;2022-12-18T17:09:00;-2.40;99.90
64939;DHT22;51453;47.738;7.420;2022-12-18T17:11:28;-2.40;99.90
64939;DHT22;51453;47.738;7.420;2022-12-18T17:13:54;-2.40;99.90
64939;DHT22;51453;47.738;7.420;2022-12-18T17:16:20;-2.40;99.90
64939;DHT22;51453;47.738;7.420;2022-12-18T17:18:46;-2.40;99.90
64939;DHT22;51453;47.738;7.420;2022-12-18T17:21:12;-2.40;99.90
64939;DHT22;51453;47.738;7.420;2022-12-18T17:23:39;-2.40;99.90
64939;DHT22;51453;47.738;7.420;2022-12-18T17:26:06;-2.30;99.90
64939;DHT22;51453;47.738;7.420;2022-12-18T17:28:33;-2.40;99.90
64939;DHT22;51453;47.738;7.420;2022-12-18T17:30:59;-2.40;99.90
64939;DHT22;51453;47.738;7.420;2022-12-18T17:33:25;-2.40;99.90
64939;DHT22;51453;47.738;7.420;2022-12-18T17:35:51;-2.40;99.90
64939;DHT22;51453;47.738;7.420;2022-12-18T17:38:17;-2.30;99.90
64939;DHT22;51453;47.738;7.420;2022-12-18T17:40:43;-2.40;99.90
64939;DHT22;51453;47.738;7.420;2022-12-18T17:43:09;-2.40;99.90
64939;DHT22;51453;47.738;7.420;2022-12-18T17:45:36;-2.40;99.90
64939;DHT22;51453;47.738;7.420;2022-12-18T17:48:06;-2.40;99.90
64939;DHT22;51453;47.738;7.420;2022-12-18T17:50:33;-2.40;99.90
64939;DHT22;51453;47.738;7.420;2022-12-18T17:52:59;-2.40;99.90
64939;DHT22;51453;47.738;7.420;2022-12-18T17:55:25;-2.40;99.90
64939;DHT22;51453;47.738;7.420;2022-12-18T17:57:51;-2.40;99.90
64939;DHT22;51453;47.738;7.420;2022-12-18T18:00:17;-2.40;99.90
64939;DHT22;51453;47.738;7.420;2022-12-18T18:02:43;-2.40;99.90
64939;DHT22;51453;47.738;7.420;2022-12-18T18:05:08;-2.40;99.90
64939;DHT22;51453;47.738;7.420;2022-12-18T18:07:34;-2.40;99.90
64939;DHT22;51453;47.738;7.420;2022-12-18T18:10:00;-2.40;99.90